Time;durP1;ratioP1;P1;durP2;ratioP2;P2;SDS_P1;SDS_P2;PMS_P1;PMS_P2;Temp;Humidity;BMP_temperature;BMP_pressure;BME280_temperature;BME280_humidity;BME280_pressure;Samples;Min_cycle;Max_cycle;Signal;HPM_P1;HPM_P2
2022/09/10 00:01:05;;;;;;;4.25;0.95;;;;;;;13.03;100.00;98139.63;2627865;28;20155;-82
2022/09/10 00:02:20;;;;;;;2.10;0.90;;;;;;;13.16;100.00;98139.94;2617309;28;20459;-82
2022/09/10 00:03:36;;;;;;;2.65;1.08;;;;;;;13.22;100.00;98128.31;2621551;28;20099;-81
2022/09/10 00:04:52;;;;;;;2.17;0.80;;;;;;;13.09;100.00;98135.88;2628030;28;20052;-81
2022/09/10 00:06:08;;;;;;;1.52;0.70;;;;;;;13.10;100.00;98134.97;2628198;28;20055;-81
2022/09/10 00:07:24;;;;;;;1.27;0.77;;;;;;;13.18;100.00;98134.63;2627966;28;20127;-82
2022/09/10 00:08:39;;;;;;;1.83;0.80;;;;;;;13.17;100.00;98135.56;2627999;28;20089;-82
2022/09/10 00:09:55;;;;;;;1.45;0.80;;;;;;;13.11;100.00;98137.50;2628131;28;20052;-81
2022/09/10 00:11:11;;;;;;;1.02;0.80;;;;;;;12.96;100.00;98136.41;2627945;28;20059;-81
2022/09/10 00:12:27;;;;;;;0.98;0.82;;;;;;;12.99;100.00;98136.28;2628256;28;20048;-82
2022/09/10 00:13:43;;;;;;;1.63;0.80;;;;;;;12.84;100.00;98142.19;2628292;28;20131;-81
2022/09/10 00:14:58;;;;;;;1.00;0.80;;;;;;;12.96;100.00;98131.16;2628078;28;20059;-81
2022/09/10 00:16:17;;;;;;;1.67;0.98;;;;;;;12.92;100.00;98142.72;2628279;28;20087;-81
2022/09/10 00:17:33;;;;;;;1.55;0.80;;;;;;;13.01;100.00;98141.47;2628164;28;20044;-84
2022/09/10 00:18:49;;;;;;;2.20;0.70;;;;;;;12.99;100.00;98148.53;2628063;28;20048;-81
2022/09/10 00:20:06;;;;;;;3.55;0.90;;;;;;;13.05;100.00;98143.03;2627909;28;20044;-82
2022/09/10 00:21:22;;;;;;;1.88;1.67;;;;;;;12.93;100.00;98146.19;2627773;28;20575;-81
2022/09/10 00:22:37;;;;;;;4.90;0.90;;;;;;;13.03;100.00;98137.00;2628179;28;20397;-81
2022/09/10 00:23:53;;;;;;;1.40;0.80;;;;;;;13.09;100.00;98128.84;2628077;28;20080;-86
2022/09/10 00:25:08;;;;;;;1.63;0.80;;;;;;;12.97;100.00;98138.13;2628052;28;20080;-83
2022/09/10 00:26:26;;;;;;;1.92;0.90;;;;;;;12.99;100.00;98151.16;2627575;28;20735;-86
2022/09/10 00:27:42;;;;;;;2.95;1.00;;;;;;;12.95;100.00;98139.09;2627999;28;20897;-82
2022/09/10 00:28:58;;;;;;;1.65;0.80;;;;;;;12.86;100.00;98145.59;2627921;28;20128;-84
2022/09/10 00:30:14;;;;;;;2.20;1.00;;;;;;;12.99;100.00;98152.03;2627617;28;20113;-81
2022/09/10 00:31:31;;;;;;;2.78;1.10;;;;;;;13.02;100.00;98152.81;2627798;28;20056;-81
2022/09/10 00:32:51;;;;;;;1.15;1.00;;;;;;;12.91;100.00;98148.88;2627791;28;20063;-84
2022/09/10 00:34:07;;;;;;;1.80;0.90;;;;;;;12.87;100.00;98159.59;2627800;28;20471;-81
2022/09/10 00:35:23;;;;;;;3.28;1.10;;;;;;;12.77;100.00;98152.09;2628291;28;20127;-82
2022/09/10 00:36:41;;;;;;;2.58;0.90;;;;;;;12.68;100.00;98149.84;2627771;28;20413;-82
2022/09/10 00:37:56;;;;;;;1.25;1.00;;;;;;;12.66;100.00;98154.31;2628044;28;20394;-81
2022/09/10 00:39:14;;;;;;;1.48;0.98;;;;;;;12.57;100.00;98159.03;2627502;28;20052;-81
2022/09/10 00:40:30;;;;;;;2.75;0.93;;;;;;;12.36;100.00;98165.13;2627918;28;20048;-81
2022/09/10 00:41:47;;;;;;;1.63;1.08;;;;;;;12.23;100.00;98156.91;2627868;28;20048;-81
2022/09/10 00:43:05;;;;;;;3.47;1.00;;;;;;;11.95;100.00;98152.69;2627881;28;20058;-80
2022/09/10 00:44:36;;;;;;;3.05;0.90;;;;;;;12.31;100.00;98152.19;2627811;28;20048;-82
2022/09/10 00:45:54;;;;;;;2.13;1.08;;;;;;;12.34;100.00;98154.69;2627848;28;20072;-81
2022/09/10 00:47:13;;;;;;;2.95;0.90;;;;;;;12.44;100.00;98152.56;2627846;28;20052;-80
2022/09/10 00:48:31;;;;;;;1.42;0.95;;;;;;;12.45;100.00;98135.91;2628266;28;20044;-81
2022/09/10 00:49:51;;;;;;;4.57;1.15;;;;;;;12.46;100.00;98153.38;2627455;28;20098;-81
2022/09/10 00:51:07;;;;;;;1.27;1.10;;;;;;;12.52;100.00;98160.13;2626813;28;20056;-81
2022/09/10 00:52:23;;;;;;;2.75;1.10;;;;;;;12.32;100.00;98155.69;2627582;28;20068;-81
2022/09/10 00:53:39;;;;;;;1.88;1.10;;;;;;;12.39;100.00;98158.00;2627643;28;20520;-81
2022/09/10 00:54:55;;;;;;;2.75;0.90;;;;;;;12.48;100.00;98154.16;2627997;28;20482;-81
2022/09/10 00:56:10;;;;;;;2.28;1.20;;;;;;;12.59;100.00;98151.06;2627611;28;20048;-85
2022/09/10 00:57:27;;;;;;;2.60;0.90;;;;;;;12.67;100.00;98158.63;2627713;28;20051;-81
2022/09/10 00:58:45;;;;;;;3.53;1.10;;;;;;;12.47;100.00;98152.44;2627699;28;20044;-80
2022/09/10 01:00:08;;;;;;;2.75;0.90;;;;;;;12.33;100.00;98155.59;2627592;28;20048;-80
2022/09/10 01:01:24;;;;;;;2.42;1.05;;;;;;;12.35;100.00;98150.31;2616298;28;20479;-80
2022/09/10 01:02:40;;;;;;;2.17;1.08;;;;;;;12.23;100.00;98152.50;2620612;28;20052;-79
2022/09/10 01:03:56;;;;;;;4.65;1.50;;;;;;;12.33;100.00;98149.53;2627742;28;20088;-80
2022/09/10 01:05:12;;;;;;;2.47;1.23;;;;;;;12.63;100.00;98152.66;2627744;28;20124;-80
2022/09/10 01:06:28;;;;;;;2.33;1.17;;;;;;;12.60;100.00;98146.69;2627623;28;20048;-80
2022/09/10 01:07:44;;;;;;;1.60;1.35;;;;;;;12.64;100.00;98157.00;2627521;28;20440;-80
2022/09/10 01:09:00;;;;;;;1.20;1.10;;;;;;;12.66;100.00;98146.44;2627205;28;20048;-80
2022/09/10 01:10:22;;;;;;;1.50;1.00;;;;;;;12.78;100.00;98150.31;2627532;28;20051;-80
2022/09/10 01:11:55;;;;;;;3.35;1.25;;;;;;;12.67;100.00;98151.63;2627658;28;20151;-80
2022/09/10 01:13:39;;;;;;;1.45;1.10;;;;;;;12.56;100.00;98153.84;2627442;28;20044;-80
2022/09/10 01:15:11;;;;;;;2.08;1.20;;;;;;;12.53;100.00;98144.31;2627502;28;20637;-80
2022/09/10 01:16:55;;;;;;;1.20;1.10;;;;;;;12.43;100.00;98148.22;2627297;28;20109;-80
2022/09/10 01:18:22;;;;;;;1.67;1.10;;;;;;;12.49;100.00;98149.72;2627213;28;20239;-81
2022/09/10 01:20:07;;;;;;;2.67;1.10;;;;;;;12.50;100.00;98149.69;2627623;28;20067;-81
2022/09/10 01:21:32;;;;;;;2.20;1.05;;;;;;;12.31;100.00;98156.59;2627374;28;20329;-80
2022/09/10 01:23:12;;;;;;;1.20;0.93;;;;;;;12.46;100.00;98155.13;2627311;28;20047;-80
2022/09/10 01:24:34;;;;;;;1.38;1.13;;;;;;;12.61;100.00;98151.03;2627532;28;20087;-80
2022/09/10 01:26:10;;;;;;;3.33;1.27;;;;;;;12.67;100.00;98154.25;2627671;28;20086;-80
2022/09/10 01:27:44;;;;;;;1.90;0.88;;;;;;;12.73;100.00;98147.03;2613194;28;20184;-80
2022/09/10 01:29:11;;;;;;;1.33;0.98;;;;;;;12.53;100.00;98152.19;2627356;28;20056;-80
2022/09/10 01:30:33;;;;;;;1.30;0.90;;;;;;;12.66;100.00;98156.94;2626882;28;20044;-80
2022/09/10 01:31:52;;;;;;;1.85;1.13;;;;;;;12.71;100.00;98155.81;2627561;28;20814;-84
2022/09/10 01:33:19;;;;;;;2.08;0.90;;;;;;;12.61;100.00;98166.78;2627370;28;20052;-81
2022/09/10 01:34:51;;;;;;;1.05;0.95;;;;;;;12.66;100.00;98159.56;2627385;28;20058;-81
2022/09/10 01:36:12;;;;;;;2.03;1.00;;;;;;;12.56;100.00;98157.31;2627289;28;20137;-83
2022/09/10 01:37:30;;;;;;;4.93;1.10;;;;;;;12.55;100.00;98152.13;2619851;28;20392;-80
2022/09/10 01:38:45;;;;;;;1.42;1.05;;;;;;;12.36;100.00;98157.25;2624447;28;20410;-82
2022/09/10 01:40:03;;;;;;;3.08;1.10;;;;;;;12.33;100.00;98157.41;2627546;28;20455;-81
2022/09/10 01:41:22;;;;;;;1.65;1.13;;;;;;;12.25;100.00;98157.69;2626905;28;20276;-80
2022/09/10 01:42:38;;;;;;;3.22;1.35;;;;;;;12.00;100.00;98154.19;2627332;28;20060;-81
2022/09/10 01:43:54;;;;;;;5.97;1.20;;;;;;;12.00;100.00;98151.56;2627253;28;20582;-80
2022/09/10 01:45:13;;;;;;;1.13;1.02;;;;;;;11.98;100.00;98148.16;2628096;28;20297;-81
2022/09/10 01:46:48;;;;;;;4.18;0.98;;;;;;;12.18;100.00;98157.09;2616117;28;20107;-81
2022/09/10 01:48:14;;;;;;;2.25;1.10;;;;;;;12.12;100.00;98152.06;2623125;28;20056;-82
2022/09/10 01:49:57;;;;;;;1.45;1.20;;;;;;;12.08;100.00;98156.59;2627106;28;20462;-81
2022/09/10 01:51:30;;;;;;;1.98;1.00;;;;;;;12.09;100.00;98153.06;2627302;28;20063;-80
2022/09/10 01:53:00;;;;;;;2.78;1.13;;;;;;;12.07;100.00;98154.84;2627248;28;20093;-83
2022/09/10 01:54:27;;;;;;;2.35;1.25;;;;;;;11.89;100.00;98151.16;2627140;28;20048;-84
2022/09/10 01:55:57;;;;;;;2.47;1.27;;;;;;;11.93;100.00;98155.38;2627174;28;20047;-82
2022/09/10 01:57:34;;;;;;;3.30;1.10;;;;;;;11.89;100.00;98153.78;2627226;28;20051;-79
2022/09/10 01:58:53;;;;;;;3.72;1.10;;;;;;;11.94;100.00;98141.34;2627105;28;20081;-79
2022/09/10 02:00:13;;;;;;;3.03;1.25;;;;;;;12.07;100.00;98143.53;2626770;28;20055;-80
2022/09/10 02:01:38;;;;;;;1.83;1.20;;;;;;;12.15;100.00;98154.56;2627397;28;20949;-80
2022/09/10 02:03:15;;;;;;;2.72;1.10;;;;;;;12.27;100.00;98145.38;2626503;28;20048;-84
2022/09/10 02:04:32;;;;;;;7.30;1.20;;;;;;;12.33;100.00;98146.91;2626660;28;20052;-81
2022/09/10 02:05:52;;;;;;;2.65;1.20;;;;;;;12.41;100.00;98139.53;2626859;28;20137;-81
2022/09/10 02:07:10;;;;;;;5.47;1.20;;;;;;;12.48;100.00;98140.16;2615709;28;20155;-80
2022/09/10 02:08:30;;;;;;;1.10;1.00;;;;;;;12.36;100.00;98141.50;2609689;28;20044;-80
2022/09/10 02:09:46;;;;;;;3.75;1.20;;;;;;;12.32;100.00;98147.81;2620706;28;20444;-85
2022/09/10 02:11:05;;;;;;;1.60;1.00;;;;;;;12.34;100.00;98145.97;2626781;28;20097;-80
2022/09/10 02:12:21;;;;;;;4.28;1.02;;;;;;;12.27;100.00;98146.19;2627172;28;20502;-81
2022/09/10 02:13:37;;;;;;;2.58;1.20;;;;;;;12.26;100.00;98149.75;2627080;28;20090;-81
2022/09/10 02:14:55;;;;;;;1.15;1.00;;;;;;;12.27;100.00;98148.81;2626861;28;20044;-80
2022/09/10 02:16:16;;;;;;;2.13;1.00;;;;;;;12.24;100.00;98153.38;2626791;28;20044;-80
2022/09/10 02:17:34;;;;;;;1.73;1.00;;;;;;;12.41;100.00;98142.16;2627203;28;20380;-80
2022/09/10 02:18:50;;;;;;;2.45;1.05;;;;;;;12.47;100.00;98143.69;2627061;28;20063;-80
2022/09/10 02:20:09;;;;;;;2.15;0.90;;;;;;;12.36;100.00;98154.63;2626784;28;20063;-82
2022/09/10 02:21:25;;;;;;;3.80;1.02;;;;;;;12.09;100.00;98147.81;2626569;28;20502;-79
2022/09/10 02:22:50;;;;;;;1.42;1.10;;;;;;;12.23;100.00;98144.63;2627050;28;20043;-80
2022/09/10 02:24:09;;;;;;;3.60;1.13;;;;;;;12.24;100.00;98145.50;2626940;28;20101;-80
2022/09/10 02:25:30;;;;;;;2.47;1.25;;;;;;;12.15;100.00;98151.94;2626644;28;20055;-80
2022/09/10 02:26:47;;;;;;;2.70;0.90;;;;;;;12.06;100.00;98152.31;2626728;28;20046;-80
2022/09/10 02:28:04;;;;;;;2.03;1.00;;;;;;;12.15;100.00;98149.31;2627109;28;20047;-80
2022/09/10 02:29:20;;;;;;;1.60;1.02;;;;;;;12.20;100.00;98146.50;2626427;28;20043;-80
2022/09/10 02:30:35;;;;;;;3.83;1.33;;;;;;;12.26;100.00;98143.66;2626606;28;20043;-80
2022/09/10 02:31:51;;;;;;;1.23;1.13;;;;;;;12.28;100.00;98147.06;2626299;28;20154;-80
2022/09/10 02:33:07;;;;;;;1.42;1.15;;;;;;;12.21;100.00;98149.09;2626832;28;20066;-82
2022/09/10 02:34:23;;;;;;;1.60;0.95;;;;;;;12.27;100.00;98156.69;2626510;28;20044;-80
2022/09/10 02:35:38;;;;;;;3.22;1.15;;;;;;;12.21;100.00;98146.47;2626866;28;20052;-83
2022/09/10 02:36:56;;;;;;;1.98;1.02;;;;;;;12.19;100.00;98145.66;2627044;28;20055;-79
2022/09/10 02:38:11;;;;;;;4.03;2.08;;;;;;;12.26;100.00;98144.50;2626867;28;20052;-80
2022/09/10 02:39:27;;;;;;;1.45;1.20;;;;;;;12.26;100.00;98149.75;2626595;28;20059;-80
2022/09/10 02:40:43;;;;;;;1.90;1.10;;;;;;;11.93;100.00;98152.75;2626464;28;20498;-80
2022/09/10 02:41:59;;;;;;;2.28;1.13;;;;;;;11.97;100.00;98148.25;2626550;28;20079;-81
2022/09/10 02:43:16;;;;;;;1.52;1.00;;;;;;;12.05;100.00;98153.22;2627093;28;20494;-80
2022/09/10 02:44:31;;;;;;;3.90;1.30;;;;;;;12.10;100.00;98146.03;2626720;28;20079;-80
2022/09/10 02:45:47;;;;;;;4.35;1.27;;;;;;;12.10;100.00;98151.25;2626611;28;20213;-80
2022/09/10 02:47:03;;;;;;;4.65;1.10;;;;;;;12.08;100.00;98146.09;2626578;28;20602;-81
2022/09/10 02:48:20;;;;;;;1.73;1.05;;;;;;;12.09;100.00;98146.94;2626831;28;20517;-80
2022/09/10 02:49:35;;;;;;;2.67;1.30;;;;;;;12.09;100.00;98147.81;2626233;28;20048;-80
2022/09/10 02:50:52;;;;;;;1.95;1.10;;;;;;;12.14;100.00;98148.47;2626518;28;20110;-80
2022/09/10 02:52:08;;;;;;;1.58;1.30;;;;;;;12.19;100.00;98143.03;2626485;28;20070;-80
2022/09/10 02:53:24;;;;;;;1.08;0.93;;;;;;;12.28;100.00;98153.16;2626659;28;20048;-80
2022/09/10 02:54:40;;;;;;;2.28;1.00;;;;;;;12.21;100.00;98145.59;2626921;28;20048;-80
2022/09/10 02:55:56;;;;;;;4.70;1.50;;;;;;;12.21;100.00;98145.59;2626715;28;20398;-79
2022/09/10 02:57:12;;;;;;;1.27;1.13;;;;;;;12.19;100.00;98153.53;2626744;28;20056;-80
2022/09/10 02:58:30;;;;;;;2.30;1.30;;;;;;;12.20;100.00;98150.00;2626284;28;20060;-80
2022/09/10 02:59:45;;;;;;;2.65;1.02;;;;;;;12.16;100.00;98148.41;2626846;28;20059;-80
2022/09/10 03:01:09;;;;;;;1.40;1.30;;;;;;;12.24;100.00;98150.75;2626458;28;20052;-80
2022/09/10 03:02:24;;;;;;;6.20;1.10;;;;;;;12.15;100.00;98146.69;2627043;28;20624;-79
2022/09/10 03:03:41;;;;;;;2.72;1.10;;;;;;;12.03;100.00;98148.03;2626758;28;20044;-80
2022/09/10 03:04:56;;;;;;;1.20;1.10;;;;;;;12.10;100.00;98146.88;2626516;28;20460;-81
2022/09/10 03:06:12;;;;;;;1.42;1.15;;;;;;;12.10;100.00;98148.66;2626636;28;20048;-81
2022/09/10 03:07:27;;;;;;;1.52;1.10;;;;;;;12.09;100.00;98152.19;2625883;28;20145;-81
2022/09/10 03:08:43;;;;;;;1.40;1.10;;;;;;;12.19;100.00;98150.91;2626309;28;20054;-79
2022/09/10 03:09:58;;;;;;;1.45;1.10;;;;;;;12.23;100.00;98154.28;2626424;28;20048;-80
2022/09/10 03:11:17;;;;;;;1.20;0.95;;;;;;;12.24;100.00;98148.94;2626762;28;20048;-80
2022/09/10 03:12:33;;;;;;;2.20;1.10;;;;;;;12.15;100.00;98152.81;2628884;28;20052;-82
2022/09/10 03:13:49;;;;;;;2.25;1.27;;;;;;;12.13;100.00;98153.75;2628599;28;20052;-82
2022/09/10 03:15:06;;;;;;;4.38;1.27;;;;;;;12.15;100.00;98149.31;2628285;28;20118;-81
2022/09/10 03:16:22;;;;;;;3.78;1.05;;;;;;;12.07;100.00;98148.78;2628832;28;20054;-80
2022/09/10 03:17:38;;;;;;;1.23;0.90;;;;;;;12.20;100.00;98152.63;2628699;28;20425;-81
2022/09/10 03:18:54;;;;;;;3.28;1.20;;;;;;;12.25;100.00;98153.28;2628631;28;20052;-82
2022/09/10 03:20:09;;;;;;;3.92;1.40;;;;;;;12.31;100.00;98151.34;2628839;28;20500;-81
2022/09/10 03:21:25;;;;;;;3.15;1.20;;;;;;;12.28;100.00;98149.69;2628236;28;20047;-80
2022/09/10 03:22:41;;;;;;;2.80;2.05;;;;;;;12.09;100.00;98146.94;2628583;28;20048;-79
2022/09/10 03:23:56;;;;;;;2.15;1.25;;;;;;;12.06;100.00;98147.91;2628503;28;20047;-80
2022/09/10 03:25:12;;;;;;;2.22;1.30;;;;;;;12.21;100.00;98151.72;2628360;28;20051;-79
2022/09/10 03:26:27;;;;;;;4.50;1.10;;;;;;;12.17;100.00;98152.75;2628643;28;20208;-80
2022/09/10 03:27:43;;;;;;;1.23;1.10;;;;;;;12.16;100.00;98151.03;2622496;28;20052;-80
2022/09/10 03:28:59;;;;;;;2.45;1.20;;;;;;;12.12;100.00;98149.44;2625332;28;20048;-79
2022/09/10 03:30:14;;;;;;;3.63;1.10;;;;;;;12.09;100.00;98146.94;2628191;28;20055;-79
2022/09/10 03:31:30;;;;;;;2.67;1.10;;;;;;;12.20;100.00;98155.25;2628400;28;20048;-82
2022/09/10 03:32:46;;;;;;;2.45;1.02;;;;;;;12.20;100.00;98155.25;2628423;28;20130;-81
2022/09/10 03:34:02;;;;;;;3.13;1.52;;;;;;;12.16;100.00;98156.28;2628413;28;20521;-80
2022/09/10 03:35:18;;;;;;;1.67;0.93;;;;;;;12.28;100.00;98160.19;2628379;28;20055;-81
2022/09/10 03:36:33;;;;;;;3.10;1.23;;;;;;;12.21;100.00;98149.09;2628279;28;20074;-80
2022/09/10 03:37:50;;;;;;;3.45;1.20;;;;;;;12.21;100.00;98151.72;2628025;28;20052;-80
2022/09/10 03:39:05;;;;;;;1.40;1.20;;;;;;;12.32;100.00;98155.69;2627904;28;20062;-81
2022/09/10 03:40:22;;;;;;;1.63;1.10;;;;;;;12.35;100.00;98155.56;2628149;28;20098;-81
2022/09/10 03:41:37;;;;;;;2.55;0.93;;;;;;;12.22;100.00;98150.78;2628018;28;20059;-79
2022/09/10 03:42:53;;;;;;;2.22;1.20;;;;;;;12.28;100.00;98157.56;2628426;28;20075;-84
2022/09/10 03:44:09;;;;;;;1.80;1.00;;;;;;;12.35;100.00;98155.56;2628315;28;20044;-79
2022/09/10 03:45:25;;;;;;;3.75;1.42;;;;;;;12.49;100.00;98154.97;2628540;28;20078;-79
2022/09/10 03:46:40;;;;;;;2.80;1.10;;;;;;;12.33;100.00;98162.63;2628403;28;20052;-80
2022/09/10 03:47:56;;;;;;;1.90;1.20;;;;;;;12.44;100.00;98152.56;2628222;28;20048;-79
2022/09/10 03:49:12;;;;;;;1.45;1.10;;;;;;;12.48;100.00;98153.28;2628401;28;20506;-79
2022/09/10 03:50:27;;;;;;;1.75;0.98;;;;;;;12.36;100.00;98159.88;2627952;28;20648;-80
2022/09/10 03:51:43;;;;;;;2.67;1.27;;;;;;;12.32;100.00;98153.06;2628060;28;20396;-82
2022/09/10 03:53:02;;;;;;;1.90;1.10;;;;;;;12.32;100.00;98153.06;2628286;28;20600;-81
2022/09/10 03:54:19;;;;;;;2.25;1.00;;;;;;;12.29;100.00;98156.66;2627586;28;20728;-80
2022/09/10 03:55:34;;;;;;;1.23;1.00;;;;;;;12.27;100.00;98156.69;2628003;28;20077;-81
2022/09/10 03:56:50;;;;;;;2.60;0.98;;;;;;;12.20;100.00;98155.25;2628071;28;20474;-81
2022/09/10 03:58:06;;;;;;;2.95;1.05;;;;;;;12.06;100.00;98150.53;2628142;28;20044;-79
2022/09/10 03:59:21;;;;;;;1.42;1.13;;;;;;;12.05;100.00;98153.22;2628082;28;20489;-83
2022/09/10 04:00:37;;;;;;;2.47;1.00;;;;;;;12.03;100.00;98152.44;2628341;28;20059;-82
2022/09/10 04:01:52;;;;;;;1.55;1.02;;;;;;;11.95;100.00;98156.16;2628215;28;20105;-82
2022/09/10 04:03:09;;;;;;;2.83;1.15;;;;;;;11.87;100.00;98152.97;2628121;28;20060;-80
2022/09/10 04:04:26;;;;;;;1.95;0.90;;;;;;;11.81;100.00;98148.84;2627923;28;20043;-82
2022/09/10 04:05:44;;;;;;;1.63;1.13;;;;;;;11.82;100.00;98152.28;2628131;28;20114;-80
2022/09/10 04:07:00;;;;;;;2.63;1.20;;;;;;;11.72;100.00;98152.63;2628401;28;20399;-83
2022/09/10 04:08:16;;;;;;;3.53;1.30;;;;;;;11.71;100.00;98153.53;2627747;28;20059;-83
2022/09/10 04:09:32;;;;;;;2.03;0.95;;;;;;;11.68;100.00;98145.78;2628506;28;20052;-84
2022/09/10 04:10:48;;;;;;;3.25;0.98;;;;;;;11.66;100.00;98147.63;2627981;28;20048;-80
2022/09/10 04:12:04;;;;;;;1.52;1.00;;;;;;;11.56;100.00;98154.13;2627884;28;20051;-80
2022/09/10 04:13:20;;;;;;;2.20;1.17;;;;;;;11.56;100.00;98149.75;2628050;28;20048;-83
2022/09/10 04:14:36;;;;;;;2.10;1.20;;;;;;;11.44;100.00;98152.81;2627917;28;20122;-79
2022/09/10 04:15:52;;;;;;;1.35;1.17;;;;;;;11.28;100.00;98155.09;2627948;28;20457;-79
2022/09/10 04:17:07;;;;;;;3.33;1.30;;;;;;;11.16;100.00;98143.31;2616092;28;20048;-80
2022/09/10 04:18:24;;;;;;;3.00;1.30;;;;;;;11.29;100.00;98144.59;2621141;28;20050;-79
2022/09/10 04:19:40;;;;;;;4.80;1.35;;;;;;;11.38;100.00;98143.41;2628100;28;20401;-86
2022/09/10 04:20:55;;;;;;;2.17;1.27;;;;;;;11.50;100.00;98149.09;2627982;28;20044;-80
2022/09/10 04:22:11;;;;;;;2.28;1.20;;;;;;;11.57;100.00;98150.56;2627731;28;20052;-80
2022/09/10 04:23:28;;;;;;;1.35;1.25;;;;;;;11.62;100.00;98153.91;2628013;28;20090;-80
2022/09/10 04:24:44;;;;;;;2.25;1.30;;;;;;;11.68;100.00;98143.16;2628191;28;20196;-83
2022/09/10 04:26:00;;;;;;;1.73;1.02;;;;;;;11.70;100.00;98149.22;2627769;28;20368;-82
2022/09/10 04:27:15;;;;;;;1.38;1.10;;;;;;;11.67;100.00;98154.56;2628042;28;20067;-82
2022/09/10 04:28:31;;;;;;;2.65;1.38;;;;;;;11.58;100.00;98153.16;2627894;28;20113;-81
2022/09/10 04:29:47;;;;;;;1.63;1.10;;;;;;;11.57;100.00;98153.19;2627668;28;20044;-81
2022/09/10 04:31:02;;;;;;;1.90;1.50;;;;;;;11.66;100.00;98154.63;2628020;28;20498;-81
2022/09/10 04:32:18;;;;;;;2.47;1.05;;;;;;;11.67;100.00;98154.56;2627610;28;21033;-81
2022/09/10 04:33:34;;;;;;;2.90;1.13;;;;;;;11.66;100.00;98154.63;2627841;28;20466;-82
2022/09/10 04:34:50;;;;;;;8.13;1.38;;;;;;;11.57;100.00;98161.06;2627682;28;20063;-81
2022/09/10 04:36:06;;;;;;;2.55;1.30;;;;;;;11.61;100.00;98156.56;2627675;28;20131;-82
2022/09/10 04:37:21;;;;;;;1.70;1.20;;;;;;;11.66;100.00;98152.00;2627536;28;20051;-82
2022/09/10 04:38:40;;;;;;;1.48;1.20;;;;;;;11.69;100.00;98151.91;2628064;28;20048;-82
2022/09/10 04:39:56;;;;;;;3.22;1.48;;;;;;;11.76;100.00;98156.00;2627386;28;20058;-82
2022/09/10 04:41:14;;;;;;;1.85;1.33;;;;;;;11.79;100.00;98157.66;2627581;28;20044;-82
2022/09/10 04:42:31;;;;;;;1.90;1.40;;;;;;;11.77;100.00;98154.25;2627680;28;20043;-82
2022/09/10 04:43:46;;;;;;;1.73;1.33;;;;;;;11.77;100.00;98159.50;2626869;28;20059;-82
2022/09/10 04:45:03;;;;;;;1.60;1.30;;;;;;;11.82;100.00;98153.16;2625508;28;20047;-83
2022/09/10 04:46:19;;;;;;;1.77;1.30;;;;;;;11.82;100.00;98155.78;2627717;28;20044;-83
2022/09/10 04:47:35;;;;;;;3.88;1.40;;;;;;;11.77;100.00;98154.25;2626944;28;20040;-82
2022/09/10 04:48:50;;;;;;;3.17;1.50;;;;;;;11.83;100.00;98149.63;2627748;28;20509;-83
2022/09/10 04:50:08;;;;;;;4.47;1.30;;;;;;;11.83;100.00;98157.50;2627437;28;20044;-81
2022/09/10 04:51:23;;;;;;;3.53;1.20;;;;;;;11.71;100.00;98160.56;2627038;28;20155;-81
2022/09/10 04:52:39;;;;;;;2.40;1.60;;;;;;;11.81;100.00;98156.69;2627476;28;20094;-82
2022/09/10 04:53:55;;;;;;;1.98;1.10;;;;;;;11.80;100.00;98162.00;2627302;28;20141;-84
2022/09/10 04:55:10;;;;;;;4.20;1.05;;;;;;;11.78;100.00;98159.41;2615962;28;20490;-83
2022/09/10 04:56:27;;;;;;;1.27;1.17;;;;;;;11.80;100.00;98162.00;2620522;28;20121;-83
2022/09/10 04:57:43;;;;;;;2.10;1.30;;;;;;;11.78;100.00;98159.41;2627560;28;20044;-82
2022/09/10 04:59:00;;;;;;;2.53;1.20;;;;;;;11.80;100.00;98156.75;2627355;28;20048;-86
2022/09/10 05:00:15;;;;;;;1.23;1.10;;;;;;;11.85;100.00;98158.28;2627163;28;20040;-83
2022/09/10 05:01:31;;;;;;;4.80;1.63;;;;;;;11.81;100.00;98163.69;2623755;28;20589;-82
2022/09/10 05:02:46;;;;;;;6.38;1.48;;;;;;;11.44;100.00;98156.25;2624963;28;20555;-82
2022/09/10 05:04:03;;;;;;;2.47;1.50;;;;;;;11.32;100.00;98153.25;2615742;28;20060;-81
2022/09/10 05:05:18;;;;;;;3.05;1.40;;;;;;;11.44;100.00;98153.66;2620580;28;20052;-81
2022/09/10 05:06:34;;;;;;;4.15;1.70;;;;;;;11.52;100.00;98158.59;2627272;28;20048;-83
2022/09/10 05:07:51;;;;;;;3.50;1.80;;;;;;;11.62;100.00;98158.28;2627023;28;20478;-83
2022/09/10 05:09:08;;;;;;;2.60;1.58;;;;;;;11.70;100.00;98156.25;2627408;28;20696;-82
2022/09/10 05:10:23;;;;;;;2.13;1.40;;;;;;;11.67;100.00;98158.97;2626438;28;20126;-85
2022/09/10 05:11:39;;;;;;;2.00;1.50;;;;;;;11.66;100.00;98154.63;2627616;28;20478;-83
2022/09/10 05:12:54;;;;;;;2.75;1.33;;;;;;;11.64;100.00;98157.31;2627283;28;20047;-82
2022/09/10 05:14:10;;;;;;;2.30;1.30;;;;;;;11.65;100.00;98159.03;2626708;28;20048;-84
2022/09/10 05:15:27;;;;;;;2.05;1.08;;;;;;;11.55;100.00;98153.28;2626617;28;20040;-83
2022/09/10 05:16:43;;;;;;;8.02;1.60;;;;;;;11.65;100.00;98160.78;2626898;28;20615;-83
2022/09/10 05:17:59;;;;;;;2.55;1.40;;;;;;;11.70;100.00;98164.94;2626452;28;20048;-82
2022/09/10 05:19:16;;;;;;;3.20;1.55;;;;;;;11.71;100.00;98156.16;2627274;28;20453;-85
2022/09/10 05:20:33;;;;;;;1.80;1.20;;;;;;;11.74;100.00;98157.81;2625888;28;20608;-83
2022/09/10 05:21:48;;;;;;;2.38;1.40;;;;;;;11.62;100.00;98164.41;2626960;28;20257;-83
2022/09/10 05:23:04;;;;;;;5.20;1.60;;;;;;;11.51;100.00;98163.94;2627159;28;20044;-83
2022/09/10 05:24:20;;;;;;;3.58;1.30;;;;;;;11.67;100.00;98164.22;2627472;28;20062;-83
2022/09/10 05:25:36;;;;;;;2.28;1.50;;;;;;;11.72;100.00;98160.50;2627089;28;20067;-83
2022/09/10 05:26:51;;;;;;;4.65;1.52;;;;;;;11.74;100.00;98165.69;2626271;28;20044;-84
2022/09/10 05:28:08;;;;;;;6.00;1.48;;;;;;;11.78;100.00;98171.69;2625815;28;20456;-87
2022/09/10 05:29:24;;;;;;;2.17;1.60;;;;;;;11.75;100.00;98166.56;2626732;28;20584;-84
2022/09/10 05:30:39;;;;;;;1.75;1.52;;;;;;;11.72;100.00;98165.75;2626039;28;20078;-84
2022/09/10 05:31:55;;;;;;;4.65;1.67;;;;;;;11.79;100.00;98168.16;2627307;28;20057;-83
2022/09/10 05:33:10;;;;;;;5.57;1.95;;;;;;;11.81;100.00;98169.81;2626861;28;20091;-85
2022/09/10 05:34:26;;;;;;;2.35;1.50;;;;;;;11.76;100.00;98168.28;2626128;28;20170;-84
2022/09/10 05:35:42;;;;;;;3.72;1.70;;;;;;;11.75;100.00;98169.19;2625430;28;20502;-83
2022/09/10 05:36:57;;;;;;;4.80;1.60;;;;;;;11.80;100.00;98170.69;2627317;28;20064;-83
2022/09/10 05:38:13;;;;;;;4.93;1.58;;;;;;;11.87;100.00;98174.81;2627191;28;20076;-84
2022/09/10 05:39:29;;;;;;;4.53;1.65;;;;;;;11.96;100.00;98171.00;2625657;28;20057;-88
2022/09/10 05:40:44;;;;;;;2.42;1.48;;;;;;;12.02;100.00;98166.47;2626362;28;20043;-85
2022/09/10 05:42:01;;;;;;;8.13;1.98;;;;;;;12.03;100.00;98162.94;2626973;28;20418;-83
2022/09/10 05:43:16;;;;;;;3.78;1.80;;;;;;;12.12;100.00;98167.81;2627185;28;20044;-82
2022/09/10 05:44:32;;;;;;;4.97;2.55;;;;;;;12.15;100.00;98172.94;2626216;28;20051;-84
2022/09/10 05:45:48;;;;;;;19.92;3.55;;;;;;;12.15;100.00;98168.53;2626337;28;20229;-84
2022/09/10 05:47:03;;;;;;;10.85;3.22;;;;;;;12.13;100.00;98178.25;2625982;28;20044;-83
2022/09/10 05:48:20;;;;;;;6.63;3.33;;;;;;;12.13;100.00;98180.88;2626572;28;20071;-85
2022/09/10 05:49:36;;;;;;;7.85;3.20;;;;;;;12.13;100.00;98180.88;2626691;28;20047;-83
2022/09/10 05:50:51;;;;;;;7.15;3.13;;;;;;;12.18;100.00;98177.22;2626817;28;20048;-83
2022/09/10 05:52:07;;;;;;;6.82;3.20;;;;;;;12.26;100.00;98181.25;2626697;28;20051;-83
2022/09/10 05:53:23;;;;;;;41.28;4.35;;;;;;;12.28;100.00;98178.56;2626873;28;20054;-84
2022/09/10 05:54:39;;;;;;;36.03;5.00;;;;;;;12.31;100.00;98182.84;2626569;28;20060;-85
2022/09/10 05:55:54;;;;;;;20.50;4.20;;;;;;;12.25;100.00;98176.91;2626422;28;20054;-86
2022/09/10 05:57:10;;;;;;;70.82;5.53;;;;;;;12.32;100.00;98168.81;2626844;28;20059;-83
2022/09/10 05:58:26;;;;;;;85.50;6.25;;;;;;;12.33;100.00;98168.72;2626755;28;20509;-83
2022/09/10 05:59:42;;;;;;;47.80;4.32;;;;;;;12.27;100.00;98172.44;2626843;28;20090;-88
2022/09/10 06:00:57;;;;;;;42.08;4.45;;;;;;;12.34;100.00;98177.47;2626710;28;20083;-86
2022/09/10 06:02:16;;;;;;;6.43;3.13;;;;;;;12.39;100.00;98172.88;2626535;28;20047;-84